createdAt,value
2022-12-22T00:02:40.281Z,10.18
2022-12-22T00:05:20.682Z,10.26
2022-12-22T00:08:00.766Z,10.37
2022-12-22T00:10:40.599Z,10.45
2022-12-22T00:13:20.912Z,10.34
2022-12-22T00:16:00.880Z,10.34
2022-12-22T00:18:40.702Z,10.26
2022-12-22T00:21:20.954Z,10.47
2022-12-22T00:24:00.814Z,10.32
2022-12-22T00:26:40.792Z,10.29
2022-12-22T00:29:21.763Z,10.11
2022-12-22T00:32:02.296Z,10.11
2022-12-22T00:34:42.147Z,9.94
2022-12-22T00:37:22.051Z,9.90
2022-12-22T00:40:02.014Z,9.91
2022-12-22T00:42:42.078Z,9.85
2022-12-22T00:45:22.313Z,9.93
2022-12-22T00:48:03.070Z,10.06
2022-12-22T00:50:49.826Z,9.97
2022-12-22T00:53:29.690Z,9.99
2022-12-22T00:56:09.859Z,10.14
2022-12-22T00:58:50.056Z,10.02
2022-12-22T01:01:31.796Z,10.03
2022-12-22T01:04:11.967Z,10.01
2022-12-22T01:06:54.122Z,10.00
2022-12-22T01:09:35.184Z,10.11
2022-12-22T01:12:15.331Z,10.16
2022-12-22T01:14:55.560Z,10.10
2022-12-22T01:17:35.804Z,10.11
2022-12-22T01:20:15.665Z,10.19
2022-12-22T01:22:55.860Z,10.27
2022-12-22T01:25:37.664Z,10.24
2022-12-22T01:28:17.944Z,10.32
2022-12-22T01:30:57.714Z,10.40
2022-12-22T01:33:37.854Z,10.44
2022-12-22T01:36:17.967Z,10.58
2022-12-22T01:38:58.245Z,10.44
2022-12-22T01:41:39.298Z,10.40
2022-12-22T01:44:19.335Z,10.40
2022-12-22T01:47:03.066Z,10.46
2022-12-22T01:49:48.982Z,10.61
2022-12-22T01:52:32.061Z,10.62
2022-12-22T01:55:14.841Z,10.57
2022-12-22T01:57:56.218Z,10.64
2022-12-22T02:00:36.747Z,10.43
2022-12-22T02:03:16.538Z,10.45
2022-12-22T02:06:07.068Z,10.55
2022-12-22T02:08:56.568Z,10.47
2022-12-22T02:12:05.023Z,10.51
2022-12-22T02:14:57.496Z,10.59
2022-12-22T02:18:02.003Z,10.70
2022-12-22T02:21:06.538Z,10.69
2022-12-22T02:23:55.576Z,10.53
2022-12-22T02:26:44.011Z,10.50
2022-12-22T02:29:25.826Z,10.57
2022-12-22T02:32:06.093Z,10.73
2022-12-22T02:34:46.127Z,10.64
2022-12-22T02:37:45.322Z,10.53
2022-12-22T02:41:00.872Z,10.55
2022-12-22T02:43:46.976Z,10.55
2022-12-22T02:46:53.669Z,10.63
2022-12-22T02:49:43.281Z,10.80
2022-12-22T02:52:33.102Z,10.47
2022-12-22T02:55:13.787Z,10.41
2022-12-22T02:57:54.035Z,10.35
2022-12-22T03:00:34.203Z,10.34
2022-12-22T03:03:14.699Z,10.24
2022-12-22T03:05:54.813Z,10.30
2022-12-22T03:08:34.627Z,10.26
2022-12-22T03:11:14.684Z,10.19
2022-12-22T03:13:54.816Z,10.14
2022-12-22T03:16:34.862Z,10.31
2022-12-22T03:19:14.796Z,10.41
2022-12-22T03:21:54.876Z,10.41
2022-12-22T03:24:35.279Z,10.33
2022-12-22T03:26:56.822Z,10.40
2022-12-22T03:29:18.496Z,10.35
2022-12-22T03:31:40.623Z,10.46
2022-12-22T03:34:02.143Z,10.43
2022-12-22T03:36:23.659Z,10.49
2022-12-22T03:38:45.156Z,10.47
2022-12-22T03:41:06.619Z,10.45
2022-12-22T03:43:47.039Z,10.63
2022-12-22T03:46:32.449Z,10.52
2022-12-22T03:49:11.879Z,10.49
2022-12-22T03:51:34.495Z,10.65
2022-12-22T03:53:55.947Z,10.80
2022-12-22T03:56:17.397Z,10.89
2022-12-22T03:58:38.846Z,10.85
2022-12-22T04:01:08.031Z,10.89
2022-12-22T04:03:29.809Z,11.03
2022-12-22T04:05:51.318Z,11.15
2022-12-22T04:08:12.735Z,11.09
2022-12-22T04:10:52.550Z,11.10
2022-12-22T04:13:14.011Z,11.00
2022-12-22T04:15:35.468Z,11.06
2022-12-22T04:17:58.199Z,11.10
2022-12-22T04:20:21.168Z,10.95
2022-12-22T04:22:42.630Z,11.07
2022-12-22T04:25:04.819Z,10.66
2022-12-22T04:27:26.259Z,10.79
2022-12-22T04:29:47.712Z,10.84
2022-12-22T04:32:09.303Z,10.72
2022-12-22T04:34:30.791Z,10.81
2022-12-22T04:36:52.243Z,10.84
2022-12-22T04:39:13.707Z,10.74
2022-12-22T04:41:35.227Z,10.73
2022-12-22T04:43:56.676Z,10.84
2022-12-22T04:46:18.223Z,10.83
2022-12-22T04:48:39.822Z,10.63
2022-12-22T04:51:01.847Z,10.56
2022-12-22T04:53:24.328Z,10.50
2022-12-22T04:55:47.154Z,10.59
2022-12-22T04:58:08.605Z,10.58
2022-12-22T05:00:30.059Z,10.58
2022-12-22T05:02:53.386Z,10.41
2022-12-22T05:05:15.012Z,10.60
2022-12-22T05:07:36.975Z,10.58
2022-12-22T05:09:58.819Z,10.44
2022-12-22T05:12:38.748Z,10.55
2022-12-22T05:15:01.485Z,10.59
2022-12-22T05:17:22.931Z,10.49
2022-12-22T05:19:44.406Z,10.50
2022-12-22T05:22:05.850Z,10.68
2022-12-22T05:24:27.277Z,10.69
2022-12-22T05:26:48.725Z,10.33
2022-12-22T05:29:10.155Z,10.41
2022-12-22T05:31:31.620Z,10.03
2022-12-22T05:33:53.152Z,10.26
2022-12-22T05:36:15.058Z,10.29
2022-12-22T05:38:36.741Z,10.39
2022-12-22T05:41:03.619Z,10.21
2022-12-22T05:43:25.909Z,10.20
2022-12-22T05:45:47.541Z,10.11
2022-12-22T05:48:09.014Z,9.98
2022-12-22T05:50:31.616Z,10.00
2022-12-22T05:52:54.409Z,10.21
2022-12-22T05:55:16.800Z,10.08
2022-12-22T05:57:38.463Z,10.07
2022-12-22T06:00:00.003Z,10.15
2022-12-22T06:02:21.958Z,10.05
2022-12-22T06:04:43.564Z,10.03
2022-12-22T06:07:05.043Z,10.25
2022-12-22T06:09:26.475Z,10.19
2022-12-22T06:11:47.928Z,10.25
2022-12-22T06:14:09.467Z,10.18
2022-12-22T06:16:31.012Z,10.28
2022-12-22T06:18:52.450Z,10.27
2022-12-22T06:21:13.925Z,10.23
2022-12-22T06:23:35.359Z,10.12
2022-12-22T06:25:58.963Z,10.26
2022-12-22T06:28:20.410Z,10.40
2022-12-22T06:30:41.857Z,10.43
2022-12-22T06:33:03.788Z,10.30
2022-12-22T06:35:25.289Z,10.31
2022-12-22T06:37:46.810Z,10.31
2022-12-22T06:40:09.798Z,10.43
2022-12-22T06:42:54.417Z,10.52
2022-12-22T06:45:15.943Z,10.51
2022-12-22T06:47:37.423Z,10.57
2022-12-22T06:49:58.946Z,10.62
2022-12-22T06:52:20.384Z,10.76
2022-12-22T06:54:41.826Z,10.59
2022-12-22T06:57:03.342Z,10.51
2022-12-22T06:59:24.764Z,10.37
2022-12-22T07:01:46.335Z,10.36
2022-12-22T07:04:08.474Z,10.45
2022-12-22T07:06:30.008Z,10.60
2022-12-22T07:08:51.470Z,10.52
2022-12-22T07:11:13.419Z,10.54
2022-12-22T07:13:35.297Z,10.65
2022-12-22T07:16:01.134Z,10.66
2022-12-22T07:18:23.447Z,10.69
2022-12-22T07:20:45.351Z,10.47
2022-12-22T07:23:06.888Z,10.60
2022-12-22T07:25:28.332Z,10.62
2022-12-22T07:27:49.781Z,10.78
2022-12-22T07:30:11.585Z,10.89
2022-12-22T07:32:33.046Z,10.95
2022-12-22T07:34:55.492Z,10.99
2022-12-22T07:37:19.147Z,11.12
2022-12-22T07:39:40.882Z,11.30
2022-12-22T07:42:20.900Z,11.32
2022-12-22T07:44:42.339Z,10.96
2022-12-22T07:47:03.941Z,10.89
2022-12-22T07:49:44.223Z,10.79
2022-12-22T07:52:05.688Z,10.80
2022-12-22T07:54:27.916Z,10.75
2022-12-22T07:56:49.967Z,10.64
2022-12-22T07:59:12.345Z,10.57
2022-12-22T08:01:34.238Z,10.72
2022-12-22T08:03:56.917Z,10.71
2022-12-22T08:06:18.861Z,10.81
2022-12-22T08:08:40.312Z,10.79
2022-12-22T08:11:03.160Z,10.81
2022-12-22T08:13:24.688Z,10.71
2022-12-22T08:15:46.261Z,10.58
2022-12-22T08:18:08.085Z,10.58
2022-12-22T08:20:29.536Z,10.57
2022-12-22T08:22:51.019Z,10.55
2022-12-22T08:25:12.504Z,10.65
2022-12-22T08:27:42.555Z,10.70
2022-12-22T08:30:04.691Z,10.74
2022-12-22T08:32:26.535Z,10.76
2022-12-22T08:34:50.769Z,10.77
2022-12-22T08:37:16.565Z,10.93
2022-12-22T08:39:41.661Z,10.81
2022-12-22T08:42:09.284Z,10.75
2022-12-22T08:44:31.173Z,10.70
2022-12-22T08:46:54.056Z,10.82
2022-12-22T08:49:16.184Z,10.71
2022-12-22T08:51:37.641Z,10.66
2022-12-22T08:54:06.964Z,10.59
2022-12-22T08:56:30.217Z,10.58
2022-12-22T08:58:51.630Z,10.67
2022-12-22T09:01:18.456Z,10.68
2022-12-22T09:03:40.007Z,10.71
2022-12-22T09:06:02.091Z,10.74
2022-12-22T09:08:23.516Z,10.76
2022-12-22T09:10:44.938Z,10.72
2022-12-22T09:13:06.373Z,10.77
2022-12-22T09:15:27.804Z,10.91
2022-12-22T09:17:49.267Z,10.85
2022-12-22T09:20:11.149Z,10.86
2022-12-22T09:22:32.638Z,10.98
2022-12-22T09:24:54.183Z,11.00
2022-12-22T09:27:15.638Z,11.05
2022-12-22T09:29:37.331Z,11.01
2022-12-22T09:31:58.898Z,11.12
2022-12-22T09:34:20.421Z,11.07
2022-12-22T09:36:42.233Z,11.14
2022-12-22T09:39:08.958Z,11.14
2022-12-22T09:41:37.527Z,11.25
2022-12-22T09:44:04.597Z,11.32
2022-12-22T09:46:29.317Z,11.23
2022-12-22T09:48:53.482Z,11.14
2022-12-22T09:51:18.582Z,11.20
2022-12-22T09:53:45.054Z,11.35
2022-12-22T09:56:11.445Z,11.20
2022-12-22T09:58:35.824Z,11.22
2022-12-22T10:01:05.777Z,11.12
2022-12-22T10:03:43.449Z,11.09
2022-12-22T10:06:20.196Z,10.98
2022-12-22T10:08:41.979Z,10.95
2022-12-22T10:11:03.978Z,10.92
2022-12-22T10:13:25.734Z,10.94
2022-12-22T10:15:48.250Z,10.97
2022-12-22T10:18:21.535Z,10.93
2022-12-22T10:20:45.786Z,11.00
2022-12-22T10:23:20.795Z,10.94
2022-12-22T10:28:46.278Z,10.98
2022-12-22T10:31:32.132Z,10.92
2022-12-22T10:33:57.301Z,10.84
2022-12-22T10:36:32.537Z,10.83
2022-12-22T10:39:19.218Z,10.88
2022-12-22T10:41:45.526Z,10.93
2022-12-22T10:44:10.683Z,10.90
2022-12-22T10:46:46.359Z,10.88
2022-12-22T10:49:18.236Z,10.73
2022-12-22T10:51:41.727Z,10.84
2022-12-22T10:54:03.353Z,10.87
2022-12-22T10:56:28.384Z,10.89
2022-12-22T10:58:53.227Z,10.88
2022-12-22T11:01:23.899Z,10.83
2022-12-22T11:03:45.449Z,10.75
2022-12-22T11:06:13.083Z,10.68
2022-12-22T11:08:34.536Z,10.71
2022-12-22T11:11:03.016Z,10.69
2022-12-22T11:13:46.122Z,10.81
2022-12-22T11:16:13.971Z,10.91
2022-12-22T11:18:46.489Z,11.03
2022-12-22T11:21:25.926Z,10.91
2022-12-22T11:24:16.090Z,10.94
2022-12-22T11:27:21.003Z,10.89
2022-12-22T11:30:09.488Z,10.86
2022-12-22T11:32:40.353Z,10.98
2022-12-22T11:35:30.197Z,11.06
2022-12-22T11:37:56.846Z,10.95
2022-12-22T11:40:28.151Z,10.92
2022-12-22T11:43:16.840Z,11.02
2022-12-22T11:46:04.071Z,10.90
2022-12-22T11:48:39.418Z,10.86
2022-12-22T11:51:18.621Z,10.91
2022-12-22T11:54:11.892Z,10.79
2022-12-22T11:56:39.326Z,10.74
2022-12-22T11:59:10.882Z,10.78
2022-12-22T12:02:03.169Z,10.72
2022-12-22T12:04:48.746Z,10.72
2022-12-22T12:07:25.314Z,10.83
2022-12-22T12:09:56.914Z,10.69
2022-12-22T12:12:52.781Z,10.73
2022-12-22T12:15:27.672Z,10.67
2022-12-22T12:18:02.074Z,10.74
2022-12-22T12:21:02.699Z,10.68
2022-12-22T12:23:42.814Z,10.54
2022-12-22T12:26:28.386Z,10.68
2022-12-22T12:29:11.582Z,10.60
2022-12-22T12:31:41.012Z,10.59
2022-12-22T12:34:03.716Z,10.49
2022-12-22T12:36:50.688Z,10.39
2022-12-22T12:39:34.188Z,10.52
2022-12-22T12:42:21.715Z,10.45
2022-12-22T12:44:43.698Z,10.39
2022-12-22T12:47:27.370Z,10.36
2022-12-22T12:50:06.259Z,10.37
2022-12-22T12:52:40.197Z,10.26
2022-12-22T12:55:31.448Z,10.30
2022-12-22T12:57:53.833Z,10.21
2022-12-22T13:00:33.855Z,10.27
2022-12-22T13:02:57.324Z,10.27
2022-12-22T13:05:52.366Z,10.37
2022-12-22T13:08:24.268Z,10.46
2022-12-22T13:10:54.693Z,10.57
2022-12-22T13:13:21.974Z,10.56
2022-12-22T13:15:45.109Z,10.62
2022-12-22T13:18:50.876Z,10.67
2022-12-22T13:24:27.808Z,10.50
2022-12-22T13:26:54.602Z,10.50
2022-12-22T13:29:35.684Z,10.44
2022-12-22T13:32:15.829Z,10.64
2022-12-22T13:35:20.195Z,10.59
2022-12-22T13:37:26.847Z,10.57
2022-12-22T13:40:14.451Z,10.49
2022-12-22T13:42:42.297Z,10.34
2022-12-22T13:45:06.217Z,10.39
2022-12-22T13:47:27.793Z,10.45
2022-12-22T13:50:08.282Z,10.47
2022-12-22T13:52:30.762Z,10.44
2022-12-22T13:54:53.784Z,10.43
2022-12-22T13:57:19.477Z,10.54
2022-12-22T13:59:43.399Z,10.58
2022-12-22T14:02:16.460Z,10.62
2022-12-22T14:04:40.875Z,10.65
2022-12-22T14:07:19.608Z,10.55
2022-12-22T14:09:46.051Z,10.52
2022-12-22T14:12:14.058Z,10.62
2022-12-22T14:14:38.354Z,10.66
2022-12-22T14:17:03.177Z,10.65
2022-12-22T14:19:25.740Z,10.57
2022-12-22T14:21:55.564Z,10.43
2022-12-22T14:24:24.074Z,10.33
2022-12-22T14:26:46.255Z,10.48
2022-12-22T14:29:16.542Z,10.42
2022-12-22T14:31:54.492Z,10.43
2022-12-22T14:34:30.054Z,10.35
2022-12-22T14:36:54.006Z,10.33
2022-12-22T14:39:27.576Z,10.22
2022-12-22T14:41:52.267Z,10.18
2022-12-22T14:44:22.314Z,10.18
2022-12-22T14:46:45.255Z,10.18
2022-12-22T14:49:14.204Z,10.15
2022-12-22T14:51:35.748Z,10.12
2022-12-22T14:54:02.442Z,10.05
2022-12-22T14:56:26.550Z,10.09
2022-12-22T14:58:49.696Z,10.03
2022-12-22T15:01:28.599Z,10.08
2022-12-22T15:03:58.240Z,9.90
2022-12-22T15:06:28.759Z,10.00
2022-12-22T15:08:54.041Z,9.87
2022-12-22T15:11:18.439Z,9.92
2022-12-22T15:13:40.155Z,9.85
2022-12-22T15:16:02.594Z,9.77
2022-12-22T15:18:27.168Z,9.87
2022-12-22T15:20:48.606Z,9.70
2022-12-22T15:23:13.530Z,9.68
2022-12-22T15:25:35.000Z,9.67
2022-12-22T15:27:56.454Z,9.65
2022-12-22T15:30:26.967Z,9.73
2022-12-22T15:32:49.055Z,9.81
2022-12-22T15:35:25.873Z,9.72
2022-12-22T15:37:47.587Z,9.71
2022-12-22T15:40:22.365Z,9.73
2022-12-22T15:42:44.249Z,9.72
2022-12-22T15:45:06.296Z,9.77
2022-12-22T15:47:28.369Z,9.77
2022-12-22T15:49:49.835Z,9.60
2022-12-22T15:52:13.215Z,9.76
2022-12-22T15:54:35.984Z,9.86
2022-12-22T15:56:57.605Z,9.89
2022-12-22T15:59:22.724Z,10.20
2022-12-22T16:01:45.180Z,9.98
2022-12-22T16:04:07.045Z,9.89
2022-12-22T16:06:28.806Z,9.86
2022-12-22T16:08:53.355Z,9.76
2022-12-22T16:11:15.264Z,9.78
2022-12-22T16:13:37.801Z,9.82
2022-12-22T16:15:59.433Z,9.81
2022-12-22T16:18:21.051Z,9.84
2022-12-22T16:20:43.843Z,9.97
2022-12-22T16:23:07.198Z,10.01
2022-12-22T16:25:34.580Z,10.09
2022-12-22T16:27:56.064Z,10.16
2022-12-22T16:30:23.562Z,10.15
2022-12-22T16:32:45.991Z,10.25
2022-12-22T16:35:10.430Z,10.02
2022-12-22T16:37:31.868Z,10.19
2022-12-22T16:39:53.292Z,10.15
2022-12-22T16:44:57.268Z,9.69
2022-12-22T16:47:22.439Z,9.66
2022-12-22T16:49:46.467Z,9.36
2022-12-22T16:52:17.941Z,9.23
2022-12-22T16:54:39.373Z,9.25
2022-12-22T16:57:00.819Z,9.37
2022-12-22T16:59:22.758Z,9.31
2022-12-22T17:01:47.593Z,9.24
2022-12-22T17:04:16.035Z,9.32
2022-12-22T17:06:38.225Z,9.27
2022-12-22T17:08:59.759Z,9.30
2022-12-22T17:11:29.210Z,9.32
2022-12-22T17:13:53.904Z,9.37
2022-12-22T17:16:19.131Z,9.47
2022-12-22T17:18:40.612Z,9.43
2022-12-22T17:21:02.140Z,9.52
2022-12-22T17:23:28.693Z,9.64
2022-12-22T17:25:50.167Z,9.72
2022-12-22T17:28:13.418Z,9.95
2022-12-22T17:30:34.893Z,9.83
2022-12-22T17:32:56.398Z,9.87
2022-12-22T17:35:20.167Z,9.94
2022-12-22T17:37:43.405Z,10.01
2022-12-22T17:40:05.453Z,10.04
2022-12-22T17:42:26.994Z,9.97
2022-12-22T17:44:49.576Z,10.07
2022-12-22T17:47:15.985Z,10.17
2022-12-22T17:49:37.413Z,10.25
2022-12-22T17:51:58.982Z,10.20
2022-12-22T17:54:27.694Z,9.90
2022-12-22T17:56:49.385Z,10.00
2022-12-22T17:59:13.947Z,9.96
2022-12-22T18:01:38.759Z,9.82
2022-12-22T18:04:00.287Z,9.82
2022-12-22T18:06:26.769Z,9.61
2022-12-22T18:08:49.176Z,9.77
2022-12-22T18:11:11.125Z,9.95
2022-12-22T18:13:32.579Z,9.96
2022-12-22T18:15:55.856Z,10.09
2022-12-22T18:18:18.354Z,10.17
2022-12-22T18:20:39.902Z,10.10
2022-12-22T18:23:02.395Z,10.24
2022-12-22T18:25:27.705Z,10.19
2022-12-22T18:27:49.464Z,10.25
2022-12-22T18:30:21.723Z,10.19
2022-12-22T18:32:43.212Z,10.11
2022-12-22T18:35:05.078Z,10.13
2022-12-22T18:37:26.631Z,10.10
2022-12-22T18:39:48.167Z,9.89
2022-12-22T18:42:21.436Z,10.02
2022-12-22T18:44:42.868Z,10.08
2022-12-22T18:47:04.423Z,10.12
2022-12-22T18:49:25.927Z,10.23
2022-12-22T18:51:47.481Z,10.36
2022-12-22T18:54:33.280Z,10.37
2022-12-22T18:56:55.761Z,10.30
2022-12-22T18:59:32.494Z,10.15
2022-12-22T19:02:02.938Z,10.10
2022-12-22T19:04:24.484Z,9.89
2022-12-22T19:06:46.345Z,10.01
2022-12-22T19:09:14.879Z,10.02
2022-12-22T19:11:36.390Z,9.92
2022-12-22T19:13:57.886Z,9.85
2022-12-22T19:16:24.942Z,9.89
2022-12-22T19:18:46.539Z,10.05
2022-12-22T19:21:12.908Z,9.75
2022-12-22T19:23:34.375Z,9.69
2022-12-22T19:26:06.977Z,9.65
2022-12-22T19:28:40.001Z,9.68
2022-12-22T19:31:01.952Z,9.57
2022-12-22T19:33:27.795Z,9.53
2022-12-22T19:35:49.267Z,9.52
2022-12-22T19:38:20.162Z,9.53
2022-12-22T19:40:41.615Z,9.57
2022-12-22T19:43:03.067Z,9.56
2022-12-22T19:45:28.277Z,9.60
2022-12-22T19:47:50.575Z,9.58
2022-12-22T19:50:23.404Z,9.64
2022-12-22T19:52:44.947Z,9.62
2022-12-22T19:55:06.663Z,9.64
2022-12-22T19:57:28.124Z,9.61
2022-12-22T19:59:53.734Z,9.73
2022-12-22T20:02:29.212Z,9.66
2022-12-22T20:04:51.319Z,9.83
2022-12-22T20:07:17.760Z,9.95
2022-12-22T20:09:39.207Z,9.99
2022-12-22T20:12:01.118Z,10.05
2022-12-22T20:14:22.577Z,9.91
2022-12-22T20:16:44.609Z,9.86
2022-12-22T20:19:13.648Z,9.82
2022-12-22T20:21:35.288Z,9.76
2022-12-22T20:23:59.835Z,9.63
2022-12-22T20:26:24.929Z,9.62
2022-12-22T20:28:47.145Z,9.73
2022-12-22T20:31:12.725Z,9.69
2022-12-22T20:33:35.027Z,9.75
2022-12-22T20:35:59.253Z,9.71
2022-12-22T20:38:41.652Z,9.60
2022-12-22T20:41:05.120Z,9.71
2022-12-22T20:43:29.338Z,9.74
2022-12-22T20:45:54.838Z,9.69
2022-12-22T20:48:31.724Z,9.69
2022-12-22T20:50:53.179Z,9.80
2022-12-22T20:53:19.957Z,9.90
2022-12-22T20:55:41.498Z,9.84
2022-12-22T20:58:12.541Z,9.89
2022-12-22T21:00:33.989Z,9.91
2022-12-22T21:02:55.586Z,9.98
2022-12-22T21:05:17.974Z,9.86
2022-12-22T21:07:39.744Z,9.94
2022-12-22T21:10:01.215Z,10.02
2022-12-22T21:12:22.720Z,10.04
2022-12-22T21:14:44.827Z,10.07
2022-12-22T21:17:15.390Z,9.98
2022-12-22T21:19:36.930Z,9.91
2022-12-22T21:21:58.421Z,9.98
2022-12-22T21:24:19.848Z,9.97
2022-12-22T21:26:45.975Z,10.04
2022-12-22T21:29:13.118Z,9.98
2022-12-22T21:31:34.574Z,9.88
2022-12-22T21:33:56.080Z,9.92
2022-12-22T21:36:22.702Z,9.98
2022-12-22T21:38:44.197Z,9.98
2022-12-22T21:41:05.669Z,10.14
2022-12-22T21:43:27.153Z,10.03
2022-12-22T21:45:49.337Z,10.02
2022-12-22T21:48:16.426Z,9.98
2022-12-22T21:50:37.841Z,10.01
2022-12-22T21:52:59.512Z,9.98
2022-12-22T21:55:25.875Z,9.97
2022-12-22T21:57:48.063Z,9.98
2022-12-22T22:00:14.835Z,9.87
2022-12-22T22:02:36.453Z,9.94
2022-12-22T22:04:57.922Z,9.97
2022-12-22T22:07:19.366Z,10.09
2022-12-22T22:09:40.878Z,9.98
2022-12-22T22:12:27.987Z,10.06
2022-12-22T22:14:49.778Z,10.07
2022-12-22T22:17:11.848Z,10.05
2022-12-22T22:19:33.461Z,9.94
2022-12-22T22:21:54.980Z,10.06
2022-12-22T22:24:16.432Z,9.93
2022-12-22T22:26:38.146Z,9.95
2022-12-22T22:28:59.572Z,10.00
2022-12-22T22:31:21.088Z,9.99
2022-12-22T22:33:42.535Z,9.89
2022-12-22T22:36:08.316Z,9.88
2022-12-22T22:38:29.872Z,10.00
2022-12-22T22:40:51.361Z,9.99
2022-12-22T22:43:14.155Z,10.00
2022-12-22T22:45:40.015Z,9.93
2022-12-22T22:48:06.272Z,9.94
2022-12-22T22:50:31.501Z,9.97
2022-12-22T22:52:52.965Z,9.98
2022-12-22T22:55:14.743Z,10.02
2022-12-22T22:57:36.196Z,9.97
2022-12-22T22:59:57.646Z,9.98
2022-12-22T23:02:19.382Z,10.02
2022-12-22T23:04:41.007Z,10.07
2022-12-22T23:07:02.592Z,10.01
2022-12-22T23:09:24.235Z,10.13
2022-12-22T23:11:45.708Z,10.07
2022-12-22T23:14:08.014Z,10.02
2022-12-22T23:16:33.895Z,9.95
2022-12-22T23:18:59.535Z,10.08
2022-12-22T23:21:23.445Z,10.11
2022-12-22T23:23:45.095Z,10.20
2022-12-22T23:26:06.868Z,10.15
2022-12-22T23:28:28.386Z,10.07
2022-12-22T23:30:51.765Z,10.22
2022-12-22T23:33:13.315Z,10.26
2022-12-22T23:35:39.620Z,10.30
2022-12-22T23:38:01.118Z,10.14
2022-12-22T23:40:51.124Z,10.18
2022-12-22T23:43:05.553Z,10.28
2022-12-22T23:45:31.102Z,10.33
2022-12-22T23:47:52.565Z,10.29
2022-12-22T23:50:14.029Z,10.45
2022-12-22T23:52:35.468Z,10.58
2022-12-22T23:54:56.914Z,10.30
2022-12-22T23:57:18.420Z,10.15
2022-12-22T23:59:39.883Z,10.22
